Terminal Aerodrome Forecast
Issued by NWS

Home | Current Version | Previous Version | Text Only | Print | Product List | Glossary On
Versions: 1 2 3 4 5 6 7 8 9 10 11 12 13 14 15 16 17 18 19
000
FTUS46 KSEW 160500
TAFSEA
TAF
KSEA 160520Z 1606/1712 VRB03KT P6SM BKN250
     FM161400 20006KT 5SM BR BKN003 BKN150
     FM161700 21007KT P6SM SCT010 BKN120
     FM161900 24007KT P6SM SCT040 BKN120
     FM171000 18008KT P6SM OVC012=

USA.gov is the U.S. government's official web portal to all federal, state and local government web resources and services.